Lima/jorge Chave

SPJC · Callao, Peru

METAR history SPJC · Lima/jorge Chave

Below you see METARs of the last few days. Select a year to browse through older METARs, from the year 2007 onwards.

December 8, 2022

Time Code Weather Temp. Visibility Ceiling Wind METAR/SPECI
01:00
V
19 °C 10 km+ - 170° 170° 7 kt METAR SPJC 080600Z 17007KT 9999 SCT030 19/15 Q1015 NOSIG RMK PP000
00:00
M
20 °C 10 km+ 2,700 ft 160° 160° 8 kt METAR SPJC 080500Z 16008KT 9999 BKN027 20/16 Q1015 NOSIG RMK PP000

December 7, 2022

Time Code Weather Temp. Visibility Ceiling Wind METAR/SPECI
23:00
M
20 °C 10 km+ 2,500 ft 160° 160° 7 kt METAR SPJC 080400Z 16007KT 9999 OVC025 20/15 Q1016 NOSIG RMK PP000
22:00
M
19 °C 10 km+ 2,200 ft 160° 160° 8 kt METAR SPJC 080300Z 16008KT 9999 BKN022 19/15 Q1016 NOSIG RMK PP000
21:00
M
19 °C 10 km+ 2,300 ft 170° 170° 11 kt METAR SPJC 080200Z 17011KT 9999 FEW011 BKN023 19/16 Q1016 NOSIG RMK PP000
20:00
M
19 °C 10 km+ 1,100 ft 170° 170° 11 kt METAR SPJC 080100Z 17011KT 9999 OVC011 19/16 Q1015 NOSIG RMK PP000
19:00
M
19 °C 10 km+ 1,100 ft 150° 150° 9 kt METAR SPJC 080000Z 15009KT 9999 OVC011 19/15 Q1014 NOSIG RMK PP000
18:00
M
19 °C 10 km+ 1,100 ft 180° 180° 12 kt METAR SPJC 072300Z 18012KT 9999 BKN011 SCT025 19/15 Q1014 NOSIG RMK PP000
17:00
V
20 °C 10 km+ 3,000 ft 180° 180° 12 kt METAR SPJC 072200Z 18012KT 150V210 9999 SCT012 OVC030 20/16 Q1013 NOSIG RMK TX22.1 PP000
16:00
V
21 °C 10 km+ 3,000 ft 190° 190° 14 kt METAR SPJC 072100Z 19014KT 9999 SCT012 BKN030 21/15 Q1012 NOSIG RMK PP000
15:00
V
22 °C 10 km+ 3,000 ft 170° 170° 13 kt METAR SPJC 072000Z 17013KT 9999 FEW014 BKN030 22/15 Q1013 NOSIG
14:00
V
22 °C 10 km+ 3,000 ft 170° 170° 14 kt METAR SPJC 071900Z 17014KT 9999 BKN030 22/15 Q1013 NOSIG RMK PP000
13:00
V
22 °C 10 km+ - 180° 180° 13 kt METAR SPJC 071800Z 18013KT 9999 FEW025 22/15 Q1014 NOSIG RMK PP000
12:00
M
21 °C 10 km+ 2,100 ft 180° 180° 9 kt METAR SPJC 071700Z 18009KT 150V230 9999 BKN021 21/15 Q1014 NOSIG RMK PP000
11:00
M
21 °C 10 km+ 2,000 ft 180° 180° 10 kt METAR SPJC 071600Z 18010KT 9999 SCT015 OVC020 21/16 Q1015 NOSIG RMK PP000
10:00
M
20 °C 10 km+ 1,400 ft 170° 170° 10 kt METAR SPJC 071500Z 17010KT 9999 OVC014 20/16 Q1015 NOSIG RMK PP000
09:00
M
19 °C 10 km+ 1,000 ft 180° 180° 9 kt METAR SPJC 071400Z 18009KT 9999 OVC010 19/16 Q1016 NOSIG RMK PP000
08:00
M
19 °C 8 km 1,100 ft 180° 180° 8 kt METAR SPJC 071300Z 18008KT 8000 OVC011 19/16 Q1015 NOSIG RMK PP000
07:00
M
19 °C 8 km 1,100 ft 200° 200° 4 kt METAR SPJC 071200Z 20004KT 8000 OVC011 19/16 Q1015 NOSIG RMK TN18.1 PP000
06:00
M
19 °C 10 km+ 1,000 ft 200° 200° 4 kt METAR SPJC 071100Z 20004KT 9999 OVC010 19/16 Q1014 TEMPO 5000 BR RMK PP000
05:00
M
19 °C 10 km+ 1,100 ft 170° 170° 6 kt METAR SPJC 071000Z 17006KT 9999 BKN011 19/16 Q1014 NOSIG RMK PP000
04:00
M
18 °C 10 km+ 1,200 ft 160° 160° 7 kt METAR SPJC 070900Z 16007KT 9999 BKN012 18/16 Q1014 NOSIG RMK PP000
03:00
V
18 °C 10 km+ - 170° 170° 7 kt METAR SPJC 070800Z 17007KT 9999 SCT010 18/16 Q1013 NOSIG RMK PP000
02:00
V
18 °C 10 km+ - 180° 180° 7 kt METAR SPJC 070700Z 18007KT 9999 FEW010 18/16 Q1013 NOSIG RMK PP000
01:00
V
19 °C 10 km+ - 170° 170° 6 kt METAR SPJC 070600Z 17006KT CAVOK 19/16 Q1014 NOSIG RMK PP000
00:00
V
19 °C 10 km+ - 170° 170° 7 kt METAR SPJC 070500Z 17007KT CAVOK 19/16 Q1015 NOSIG RMK PP000

December 6, 2022

Time Code Weather Temp. Visibility Ceiling Wind METAR/SPECI
23:00
V
19 °C 10 km+ - 160° 160° 10 kt METAR SPJC 070400Z 16010KT CAVOK 19/16 Q1015 NOSIG RMK PP000
22:00
V
19 °C 10 km+ - 160° 160° 11 kt METAR SPJC 070300Z 16011KT CAVOK 19/16 Q1015 NOSIG RMK PP000
21:00
V
20 °C 10 km+ - 160° 160° 11 kt METAR SPJC 070200Z 16011KT CAVOK 20/16 Q1014 NOSIG RMK PP000
20:00
V
20 °C 10 km+ - 170° 170° 11 kt METAR SPJC 070100Z 17011KT CAVOK 20/16 Q1013 NOSIG
19:00
V
20 °C 10 km+ - 160° 160° 12 kt METAR SPJC 070000Z 16012KT CAVOK 20/15 Q1012 NOSIG RMK PP000
18:00
V
21 °C 10 km+ - 170° 170° 12 kt METAR SPJC 062300Z 17012KT CAVOK 21/15 Q1011 NOSIG RMK PP000
17:00
V
22 °C 10 km+ - 170° 170° 12 kt METAR SPJC 062200Z 17012KT CAVOK 22/16 Q1011 NOSIG RMK TX24.2 PP000
16:00
V
23 °C 10 km+ - 180° 180° 13 kt METAR SPJC 062100Z 18013KT CAVOK 23/16 Q1011 NOSIG RMK PP000
15:00
V
23 °C 10 km+ - 170° 170° 14 kt METAR SPJC 062000Z 17014KT CAVOK 23/15 Q1011 NOSIG RMK PP000
14:00
V
24 °C 10 km+ - 180° 180° 11 kt METAR SPJC 061900Z 18011KT 150V210 CAVOK 24/15 Q1012 NOSIG RMK PP000
13:00
V
24 °C 10 km+ - 190° 190° 9 kt METAR SPJC 061800Z 19009KT CAVOK 24/16 Q1012 NOSIG RMK PP000
12:00
V
24 °C 10 km+ - 180° 180° 8 kt METAR SPJC 061700Z 18008KT 140V220 9999 NSC 24/16 Q1012 NOSIG RMK PP000
11:00
V
23 °C 10 km+ - 190° 190° 8 kt METAR SPJC 061600Z 19008KT 150V220 CAVOK 23/16 Q1013 NOSIG RMK PP000
10:00
V
22 °C 10 km+ - 190° 190° 7 kt METAR SPJC 061500Z 19007KT 150V230 CAVOK 22/16 Q1013 NOSIG RMK PP000
09:00
V
21 °C 10 km+ - 180° 180° 7 kt METAR SPJC 061400Z 18007KT 150V220 CAVOK 21/17 Q1013 NOSIG RMK PP000
08:00
V
20 °C 10 km+ - 180° 180° 6 kt METAR SPJC 061300Z 18006KT CAVOK 20/17 Q1013 NOSIG RMK PP000
07:00
V
18 °C 10 km+ - 170° 170° 8 kt METAR SPJC 061200Z 17008KT CAVOK 18/16 Q1012 NOSIG RMK TN17.8 PP000
06:00
V
18 °C 10 km+ - 170° 170° 6 kt METAR SPJC 061100Z 17006KT 9999 SCT018 18/15 Q1012 BECMG AT1130 SCT010 OVC015 RMK PP000
05:00
M
18 °C 10 km+ 1,700 ft 170° 170° 7 kt METAR SPJC 061000Z 17007KT 9999 BKN017 18/16 Q1012 BECMG AT1030 BKN015 OVC017 RMK PP000
04:00
V
18 °C 10 km+ - 180° 180° 7 kt METAR SPJC 060900Z 18007KT 9999 SCT021 18/15 Q1012 NOSIG RMK PP000
03:00
V
18 °C 10 km+ - 170° 170° 7 kt METAR SPJC 060800Z 17007KT CAVOK 18/16 Q1012 NOSIG RMK PP000
02:00
V
18 °C 10 km+ - 160° 160° 7 kt METAR SPJC 060700Z 16007KT CAVOK 18/16 Q1012 NOSIG RMK PP000
01:00
V
19 °C 10 km+ - 180° 180° 7 kt METAR SPJC 060600Z 18007KT CAVOK 19/16 Q1013 NOSIG RMK PP000
00:00
V
19 °C 10 km+ - 170° 170° 7 kt METAR SPJC 060500Z 17007KT CAVOK 19/16 Q1014 NOSIG RMK PP000

December 5, 2022

Time Code Weather Temp. Visibility Ceiling Wind METAR/SPECI
23:00
V
19 °C 10 km+ - 160° 160° 8 kt METAR SPJC 060400Z 16008KT CAVOK 19/15 Q1014 NOSIG RMK PP000
22:00
V
19 °C 10 km+ - 150° 150° 9 kt METAR SPJC 060300Z 15009KT 9999 FEW007 19/15 Q1014 NOSIG RMK PP000
21:00
V
19 °C 10 km+ - 190° 190° 7 kt METAR SPJC 060200Z 19007KT 9999 SCT007 19/15 Q1014 NOSIG RMK PP000
20:00
V
19 °C 10 km+ - 180° 180° 6 kt METAR SPJC 060100Z 18006KT 9999 SCT007 19/15 Q1013 NOSIG RMK PP000
19:00
V
19 °C 10 km+ - 170° 170° 7 kt METAR SPJC 060000Z 17007KT 9999 FEW007 SCT022 19/15 Q1012 NOSIG RMK PP000
18:00
M
19 °C 10 km+ 2,200 ft 180° 180° 9 kt METAR SPJC 052300Z 18009KT 9999 SCT007 BKN022 19/15 Q1012 BECMG AT2330 SCT010 BKN022 RMK PP000
17:00
V
20 °C 10 km+ - 190° 190° 10 kt METAR SPJC 052200Z 19010KT 9999 SCT022 20/15 Q1011 NOSIG RMK BIRD HAZARTD RWY 16 TX22.5 PP000
16:00
V
21 °C 10 km+ - 180° 180° 10 kt METAR SPJC 052100Z 18010KT 9999 SCT022 21/15 Q1011 NOSIG RMK BIRD HAZARTD RWY 16 PP000
15:00
M
21 °C 10 km+ 2,200 ft 220° 220° 10 kt METAR SPJC 052000Z 22010KT 190V250 9999 BKN022 21/14 Q1011 NOSIG RMK BIRD HAZARTD RWY 16 PP000
14:00
V
21 °C 10 km+ - 250° 250° 11 kt METAR SPJC 051900Z 25011KT 9999 FEW020 21/15 Q1012 NOSIG RMK BIRD HAZARTD RWY 16 PP000
13:00
V
21 °C 10 km+ - 260° 260° 10 kt METAR SPJC 051800Z 26010KT 9999 FEW020 21/15 Q1012 NOSIG RMK BIRD HAZARTD RWY 16 PP000
12:00
M
21 °C 10 km+ 2,000 ft 270° 270° 8 kt METAR SPJC 051700Z 27008KT 9999 SCT017 BKN020 21/15 Q1012 NOSIG RMK BIRD HAZARTD RWY 16 PP000
11:00
M
20 °C 10 km+ 1,700 ft 290° 290° 7 kt METAR SPJC 051600Z 29007KT 9999 OVC017 20/15 Q1013 NOSIG RMK BIRD HAZARTD RWY 16 PP000
10:00
M
19 °C 10 km+ 1,600 ft 290° 290° 6 kt METAR SPJC 051500Z 29006KT 9999 OVC016 19/14 Q1013 NOSIG RMK BIRD HAZARTD RWY 16 PP000
09:00
M
19 °C 10 km+ 1,500 ft 270° 270° 4 kt METAR SPJC 051400Z 27004KT 220V300 9999 OVC015 19/14 Q1013 NOSIG RMK PP000
08:00
M
19 °C 10 km+ 1,400 ft Var Var 2 kt METAR SPJC 051300Z VRB02KT 9999 OVC014 19/15 Q1013 NOSIG RMK PP000
07:00
M
18 °C 8 km 1,400 ft Var Var 2 kt METAR SPJC 051200Z VRB02KT 8000 OVC014 18/15 Q1012 NOSIG RMK TN17.9 PP000
06:00
M
18 °C 8 km 1,200 ft 280° 280° 4 kt METAR SPJC 051100Z 28004KT 250V310 8000 OVC012 18/15 Q1012 NOSIG RMK PP000
05:00
M
18 °C 8 km 1,600 ft 240° 240° 4 kt METAR SPJC 051000Z 24004KT 8000 OVC016 18/15 Q1011 NOSIG RMK PP000

We and third parties follow your internet behavior on our website with cookies. If you continue, we assume you agree with our cookie policy.